createdAt,value
2022-12-17T00:02:30.785Z,6.97
2022-12-17T00:05:17.625Z,8.57
2022-12-17T00:08:23.531Z,7.80
2022-12-17T00:16:42.923Z,8.45
2022-12-17T00:19:29.690Z,8.55
2022-12-17T00:22:16.342Z,9.35
2022-12-17T00:25:02.718Z,10.10
2022-12-17T00:27:49.371Z,9.23
2022-12-17T00:30:35.637Z,7.78
2022-12-17T00:33:22.282Z,8.02
2022-12-17T00:36:12.090Z,8.10
2022-12-17T00:38:58.622Z,11.30
2022-12-17T00:41:45.989Z,11.63
2022-12-17T00:44:32.597Z,9.48
2022-12-17T00:47:19.680Z,6.50
2022-12-17T00:50:07.912Z,8.80
2022-12-17T00:52:54.039Z,7.82
2022-12-17T00:55:42.623Z,7.78
2022-12-17T00:58:49.417Z,8.52
2022-12-17T01:01:47.075Z,9.27
2022-12-17T01:04:33.849Z,8.52
2022-12-17T01:07:20.631Z,6.97
2022-12-17T01:10:08.448Z,9.15
2022-12-17T01:12:54.977Z,5.75
2022-12-17T01:15:42.533Z,8.30
2022-12-17T01:18:28.850Z,7.53
2022-12-17T01:21:16.244Z,7.20
2022-12-17T01:24:04.654Z,5.85
2022-12-17T01:27:00.151Z,5.25
2022-12-17T01:29:46.175Z,7.30
2022-12-17T01:32:32.694Z,4.35
2022-12-17T01:35:21.039Z,6.05
2022-12-17T01:38:07.935Z,7.47
2022-12-17T01:40:54.276Z,6.72
2022-12-17T01:43:52.336Z,7.32
2022-12-17T01:46:40.033Z,5.20
2022-12-17T01:49:29.408Z,7.03
2022-12-17T01:52:17.075Z,6.47
2022-12-17T01:55:04.337Z,6.07
2022-12-17T01:57:51.548Z,7.95
2022-12-17T02:00:38.841Z,7.78
2022-12-17T02:03:36.488Z,7.82
2022-12-17T02:06:44.194Z,8.73
2022-12-17T02:09:43.500Z,6.78
2022-12-17T02:12:45.734Z,6.18
2022-12-17T02:15:49.430Z,9.50
2022-12-17T02:18:44.345Z,7.90
2022-12-17T02:21:31.682Z,9.18
2022-12-17T02:24:46.626Z,7.88
2022-12-17T02:27:34.455Z,6.72
2022-12-17T02:30:25.086Z,7.18
2022-12-17T02:33:13.408Z,4.43
2022-12-17T02:36:12.413Z,6.28
2022-12-17T02:38:59.125Z,6.78
2022-12-17T02:41:58.339Z,8.35
2022-12-17T02:44:48.588Z,7.82
2022-12-17T02:47:37.415Z,7.53
2022-12-17T02:50:25.458Z,7.72
2022-12-17T02:53:13.235Z,8.05
2022-12-17T02:55:59.902Z,8.15
2022-12-17T03:00:57.268Z,4.90
2022-12-17T03:06:37.109Z,6.53
2022-12-17T03:18:13.434Z,5.20
2022-12-17T03:23:46.694Z,6.85
2022-12-17T03:26:33.015Z,5.53
2022-12-17T03:29:19.726Z,5.55
2022-12-17T03:32:07.089Z,7.78
2022-12-17T03:37:39.583Z,6.93
2022-12-17T03:40:26.086Z,6.25
2022-12-17T03:43:12.249Z,6.35
2022-12-17T03:45:58.913Z,6.07
2022-12-17T03:48:45.031Z,5.88
2022-12-17T03:51:31.609Z,6.05
2022-12-17T03:54:17.834Z,5.72
2022-12-17T03:57:03.994Z,6.25
2022-12-17T03:59:50.292Z,6.60
2022-12-17T04:02:36.759Z,5.60
2022-12-17T04:05:23.561Z,8.00
2022-12-17T04:08:10.728Z,11.55
2022-12-17T04:10:57.529Z,8.80
2022-12-17T04:13:44.317Z,6.85
2022-12-17T04:16:31.103Z,5.78
2022-12-17T04:19:17.800Z,7.03
2022-12-17T04:22:03.897Z,6.72
2022-12-17T04:24:50.339Z,8.95
2022-12-17T04:27:37.031Z,8.77
2022-12-17T04:30:24.035Z,7.75
2022-12-17T04:33:10.898Z,5.60
2022-12-17T04:35:57.526Z,5.45
2022-12-17T04:38:44.086Z,5.20
2022-12-17T04:41:30.421Z,8.75
2022-12-17T04:44:16.893Z,7.05
2022-12-17T04:47:03.409Z,9.10
2022-12-17T04:49:49.705Z,12.23
2022-12-17T04:52:36.050Z,12.15
2022-12-17T04:55:22.688Z,11.48
2022-12-17T04:58:09.150Z,14.93
2022-12-17T05:00:55.377Z,16.92
2022-12-17T05:03:41.950Z,14.27
2022-12-17T05:06:29.196Z,12.48
2022-12-17T05:09:15.928Z,14.23
2022-12-17T05:12:02.494Z,17.23
2022-12-17T05:14:48.874Z,24.90
2022-12-17T05:17:35.528Z,15.82
2022-12-17T05:20:22.015Z,11.05
2022-12-17T05:23:08.717Z,9.18
2022-12-17T05:25:55.281Z,21.40
2022-12-17T05:28:41.593Z,20.92
2022-12-17T05:31:28.314Z,20.15
2022-12-17T05:34:14.844Z,17.77
2022-12-17T05:37:01.071Z,15.05
2022-12-17T05:39:47.810Z,20.23
2022-12-17T05:42:34.371Z,19.58
2022-12-17T05:45:21.165Z,15.80
2022-12-17T05:48:07.602Z,32.72
2022-12-17T05:50:53.857Z,24.67
2022-12-17T05:53:40.218Z,21.30
2022-12-17T05:56:26.593Z,41.20
2022-12-17T05:59:13.175Z,26.88
2022-12-17T06:01:59.726Z,24.83
2022-12-17T06:04:46.487Z,35.30
2022-12-17T06:07:33.100Z,21.65
2022-12-17T06:10:19.416Z,24.80
2022-12-17T06:13:15.872Z,13.98
2022-12-17T06:16:02.209Z,14.35
2022-12-17T06:18:49.131Z,14.65
2022-12-17T06:21:35.720Z,16.02
2022-12-17T06:24:22.646Z,34.10
2022-12-17T06:27:09.928Z,23.27
2022-12-17T06:29:56.864Z,22.40
2022-12-17T06:32:43.306Z,42.30
2022-12-17T06:35:29.588Z,27.00
2022-12-17T06:38:25.571Z,19.58
2022-12-17T06:41:12.230Z,25.38
2022-12-17T06:43:58.411Z,7.80
2022-12-17T06:46:45.204Z,5.70
2022-12-17T06:49:31.712Z,6.03
2022-12-17T06:52:17.944Z,4.88
2022-12-17T06:55:04.313Z,6.95
2022-12-17T06:57:50.812Z,9.60
2022-12-17T07:00:37.153Z,6.75
2022-12-17T07:03:23.973Z,8.40
2022-12-17T07:06:10.603Z,10.20
2022-12-17T07:08:56.876Z,4.25
2022-12-17T07:11:43.869Z,8.63
2022-12-17T07:14:30.588Z,16.50
2022-12-17T07:17:16.783Z,8.02
2022-12-17T07:20:03.008Z,7.28
2022-12-17T07:22:49.575Z,5.35
2022-12-17T07:25:37.253Z,4.97
2022-12-17T07:28:26.096Z,27.13
2022-12-17T07:31:15.209Z,17.35
2022-12-17T07:34:01.816Z,8.98
2022-12-17T07:36:48.409Z,16.15
2022-12-17T07:39:35.100Z,12.75
2022-12-17T07:42:21.781Z,8.35
2022-12-17T07:45:08.400Z,8.88
2022-12-17T07:47:55.043Z,12.02
2022-12-17T07:50:43.230Z,9.63
2022-12-17T07:53:29.790Z,9.60
2022-12-17T07:56:16.923Z,13.98
2022-12-17T07:59:03.248Z,12.13
2022-12-17T08:01:50.068Z,14.23
2022-12-17T08:04:36.430Z,15.07
2022-12-17T08:07:22.732Z,8.82
2022-12-17T08:10:08.965Z,7.70
2022-12-17T08:12:55.647Z,5.60
2022-12-17T08:15:42.429Z,10.02
2022-12-17T08:18:29.545Z,9.60
2022-12-17T08:21:16.208Z,9.75
2022-12-17T08:24:02.961Z,7.70
2022-12-17T08:26:49.528Z,11.68
2022-12-17T08:29:36.037Z,11.85
2022-12-17T08:32:23.262Z,10.88
2022-12-17T08:35:09.988Z,6.88
2022-12-17T08:37:56.693Z,3.95
2022-12-17T08:40:43.351Z,9.63
2022-12-17T08:43:29.759Z,4.82
2022-12-17T08:46:16.951Z,4.25
2022-12-17T08:49:03.763Z,4.80
2022-12-17T08:51:50.481Z,2.90
2022-12-17T08:54:36.783Z,5.28
2022-12-17T08:57:31.482Z,4.57
2022-12-17T09:00:18.896Z,4.18
2022-12-17T09:03:05.607Z,14.57
2022-12-17T09:05:52.227Z,6.53
2022-12-17T09:08:38.965Z,4.32
2022-12-17T09:11:25.859Z,6.47
2022-12-17T09:14:13.581Z,40.15
2022-12-17T09:23:05.240Z,8.88
2022-12-17T09:25:56.570Z,4.32
2022-12-17T09:28:45.168Z,5.78
2022-12-17T09:31:37.001Z,3.80
2022-12-17T09:34:24.470Z,9.05
2022-12-17T09:37:11.201Z,7.72
2022-12-17T09:39:57.881Z,11.20
2022-12-17T09:43:22.015Z,4.72
2022-12-17T09:46:28.084Z,13.57
2022-12-17T09:49:45.843Z,7.70
2022-12-17T09:52:55.830Z,10.23
2022-12-17T09:56:07.480Z,5.68
2022-12-17T09:58:57.235Z,5.38
2022-12-17T10:01:46.955Z,3.25
2022-12-17T10:04:56.307Z,5.75
2022-12-17T10:07:47.295Z,3.70
2022-12-17T10:10:42.961Z,8.13
2022-12-17T10:13:34.988Z,3.88
2022-12-17T10:16:35.553Z,10.27
2022-12-17T10:19:22.536Z,6.93
2022-12-17T10:25:04.829Z,6.93
2022-12-17T10:27:50.981Z,6.35
2022-12-17T10:30:38.139Z,6.47
2022-12-17T10:33:26.784Z,50.30
2022-12-17T10:36:13.199Z,10.00
2022-12-17T10:39:00.015Z,8.82
2022-12-17T10:41:49.674Z,8.95
2022-12-17T10:44:53.712Z,7.47
2022-12-17T10:47:45.170Z,9.00
2022-12-17T10:50:45.132Z,15.48
2022-12-17T10:53:43.986Z,12.70
2022-12-17T10:56:45.491Z,21.05
2022-12-17T10:59:44.897Z,30.67
2022-12-17T11:02:39.604Z,19.92
2022-12-17T11:05:45.357Z,47.13
2022-12-17T11:11:25.464Z,22.17
2022-12-17T11:14:13.123Z,19.00
2022-12-17T11:17:06.882Z,12.10
2022-12-17T11:20:03.063Z,8.13
2022-12-17T11:23:08.902Z,6.43
2022-12-17T11:26:01.072Z,12.40
2022-12-17T11:28:52.467Z,33.65
2022-12-17T11:31:50.452Z,24.98
2022-12-17T11:35:08.881Z,17.95
2022-12-17T11:38:23.418Z,22.42
2022-12-17T11:41:16.773Z,10.32
2022-12-17T11:44:35.690Z,9.05
2022-12-17T11:47:37.966Z,19.10
2022-12-17T11:50:44.737Z,26.13
2022-12-17T11:53:46.383Z,20.98
2022-12-17T11:56:33.162Z,22.13
2022-12-17T11:59:52.669Z,13.23
2022-12-17T12:02:49.572Z,33.70
2022-12-17T12:05:57.255Z,17.15
2022-12-17T12:08:48.071Z,57.45
2022-12-17T12:11:46.566Z,62.72
2022-12-17T12:14:54.360Z,11.27
2022-12-17T12:18:23.768Z,6.60
2022-12-17T12:21:10.961Z,14.60
2022-12-17T12:24:03.586Z,13.60
2022-12-17T12:27:10.161Z,14.05
2022-12-17T12:30:24.985Z,19.13
2022-12-17T12:33:20.981Z,28.80
2022-12-17T12:36:09.661Z,27.75
2022-12-17T12:39:01.938Z,29.40
2022-12-17T12:42:16.496Z,14.20
2022-12-17T12:45:10.455Z,16.65
2022-12-17T12:48:10.954Z,21.95
2022-12-17T12:51:23.827Z,13.45
2022-12-17T12:54:19.503Z,13.55
2022-12-17T12:57:08.716Z,63.55
2022-12-17T12:59:56.241Z,85.93
2022-12-17T13:02:49.776Z,39.38
2022-12-17T13:05:40.114Z,32.22
2022-12-17T13:08:08.618Z,58.08
2022-12-17T13:10:37.902Z,100.32
2022-12-17T13:13:20.322Z,27.08
2022-12-17T13:15:54.696Z,20.98
2022-12-17T13:18:34.854Z,72.90
2022-12-17T13:21:16.288Z,94.65
2022-12-17T13:23:44.792Z,22.13
2022-12-17T13:26:36.092Z,30.15
2022-12-17T13:29:20.362Z,34.47
2022-12-17T13:32:05.515Z,43.88
2022-12-17T13:35:24.210Z,55.33
2022-12-17T13:38:20.345Z,22.02
2022-12-17T13:41:10.460Z,47.90
2022-12-17T13:43:49.629Z,32.67
2022-12-17T13:46:29.508Z,18.42
2022-12-17T13:49:00.261Z,20.15
2022-12-17T13:51:31.044Z,34.38
2022-12-17T13:54:01.907Z,34.28
2022-12-17T13:56:37.810Z,26.17
2022-12-17T13:59:09.621Z,19.80
2022-12-17T14:01:49.846Z,29.13
2022-12-17T14:04:26.325Z,26.70
2022-12-17T14:06:59.442Z,20.35
2022-12-17T14:09:36.056Z,28.42
2022-12-17T14:12:25.421Z,13.05
2022-12-17T14:15:01.594Z,15.07
2022-12-17T14:17:50.080Z,14.57
2022-12-17T14:20:25.693Z,21.58
2022-12-17T14:23:02.401Z,29.65
2022-12-17T14:25:35.718Z,27.30
2022-12-17T14:28:25.256Z,43.03
2022-12-17T14:34:08.598Z,74.72
2022-12-17T14:36:40.047Z,67.18
2022-12-17T14:39:26.640Z,51.58
2022-12-17T14:42:16.989Z,73.97
2022-12-17T14:44:52.855Z,25.67
2022-12-17T14:47:32.945Z,25.80
2022-12-17T14:50:26.429Z,41.40
2022-12-17T14:52:57.703Z,61.30
2022-12-17T14:55:33.329Z,60.70
2022-12-17T14:58:13.457Z,43.55
2022-12-17T15:00:51.115Z,70.85
2022-12-17T15:03:19.703Z,109.03
2022-12-17T15:05:53.244Z,72.35
2022-12-17T15:08:22.397Z,68.18
2022-12-17T15:10:50.970Z,49.13
2022-12-17T15:15:47.693Z,46.63
2022-12-17T15:18:15.713Z,47.90
2022-12-17T15:20:44.153Z,48.22
2022-12-17T15:23:18.917Z,40.67
2022-12-17T15:36:41.224Z,104.40
2022-12-17T15:39:09.756Z,82.28
2022-12-17T15:41:56.838Z,69.60
2022-12-17T15:44:25.150Z,68.53
2022-12-17T15:46:53.445Z,82.15
2022-12-17T15:49:24.719Z,42.53
2022-12-17T15:51:53.287Z,26.17
2022-12-17T15:54:21.714Z,32.65
2022-12-17T15:56:57.070Z,24.58
2022-12-17T15:59:25.483Z,46.55
2022-12-17T16:01:54.211Z,34.00
2022-12-17T16:06:54.109Z,32.88
2022-12-17T16:09:27.362Z,46.10
2022-12-17T16:11:57.141Z,35.47
2022-12-17T16:14:25.924Z,38.75
2022-12-17T16:19:22.671Z,7.80
2022-12-17T16:21:51.056Z,13.98
2022-12-17T16:24:19.753Z,15.50
2022-12-17T16:26:48.102Z,15.05
2022-12-17T16:29:16.597Z,14.80
2022-12-17T16:31:46.581Z,9.50
2022-12-17T16:34:15.252Z,33.15
2022-12-17T16:36:43.660Z,35.70
2022-12-17T16:39:17.944Z,23.80
2022-12-17T16:41:47.257Z,50.38
2022-12-17T16:44:16.015Z,56.38
2022-12-17T16:46:46.801Z,39.78
2022-12-17T16:49:24.953Z,22.83
2022-12-17T16:51:54.812Z,33.53
2022-12-17T16:54:26.566Z,28.95
2022-12-17T16:56:55.365Z,34.53
2022-12-17T16:59:24.162Z,33.78
2022-12-17T17:01:53.806Z,15.63
2022-12-17T17:04:23.638Z,12.15
2022-12-17T17:06:57.196Z,77.28
2022-12-17T17:09:26.614Z,27.33
2022-12-17T17:11:57.342Z,37.80
2022-12-17T17:14:26.912Z,33.60
2022-12-17T17:16:55.429Z,30.40
2022-12-17T17:19:24.024Z,30.90
2022-12-17T17:21:54.936Z,23.75
2022-12-17T17:24:26.195Z,17.60
2022-12-17T17:26:55.911Z,22.15
2022-12-17T17:29:25.797Z,13.25
2022-12-17T17:32:10.334Z,12.98
2022-12-17T17:34:40.787Z,21.15
2022-12-17T17:37:09.212Z,41.50
2022-12-17T17:39:37.763Z,27.77
2022-12-17T17:42:08.452Z,37.00
2022-12-17T17:44:37.682Z,35.63
2022-12-17T17:47:08.134Z,14.23
2022-12-17T17:49:36.853Z,12.20
2022-12-17T17:52:10.225Z,11.82
2022-12-17T17:54:40.104Z,13.90
2022-12-17T17:57:09.853Z,28.05
2022-12-17T17:59:39.897Z,18.50
2022-12-17T18:02:11.529Z,19.75
2022-12-17T18:04:40.378Z,13.18
2022-12-17T18:07:26.083Z,15.35
2022-12-17T18:09:56.284Z,20.20
2022-12-17T18:12:43.214Z,11.70
2022-12-17T18:15:16.924Z,9.75
2022-12-17T18:17:47.730Z,8.15
2022-12-17T18:20:16.807Z,60.60
2022-12-17T18:22:46.808Z,42.92
2022-12-17T18:25:16.950Z,21.48
2022-12-17T18:27:45.515Z,36.20
2022-12-17T18:30:16.663Z,84.47
2022-12-17T18:32:47.475Z,58.67
2022-12-17T18:35:16.246Z,63.13
2022-12-17T18:37:44.541Z,52.70
2022-12-17T18:40:13.146Z,45.00
2022-12-17T18:43:00.027Z,39.92
2022-12-17T18:45:28.718Z,16.75
2022-12-17T18:47:57.185Z,11.50
2022-12-17T18:50:26.134Z,16.17
2022-12-17T18:52:54.411Z,17.02
2022-12-17T18:55:22.930Z,19.85
2022-12-17T18:57:51.457Z,22.13
2022-12-17T19:00:19.685Z,64.63
2022-12-17T19:02:48.415Z,48.28
2022-12-17T19:05:17.154Z,58.22
2022-12-17T19:07:45.700Z,29.17
2022-12-17T19:10:14.267Z,13.35
2022-12-17T19:12:42.599Z,30.05
2022-12-17T19:15:11.155Z,18.20
2022-12-17T19:17:39.721Z,13.18
2022-12-17T19:20:09.034Z,19.20
2022-12-17T19:22:37.475Z,15.65
2022-12-17T19:25:06.265Z,13.93
2022-12-17T19:27:34.574Z,18.23
2022-12-17T19:30:03.150Z,10.50
2022-12-17T19:32:32.073Z,10.48
2022-12-17T19:35:00.604Z,10.85
2022-12-17T19:37:29.014Z,13.88
2022-12-17T19:39:57.769Z,6.65
2022-12-17T19:42:27.599Z,8.93
2022-12-17T19:44:59.411Z,9.25
2022-12-17T19:47:30.882Z,8.38
2022-12-17T19:49:59.408Z,9.70
2022-12-17T19:52:27.641Z,7.78
2022-12-17T19:54:56.237Z,13.32
2022-12-17T19:57:24.649Z,8.18
2022-12-17T19:59:52.648Z,14.98
2022-12-17T20:02:21.129Z,25.13
2022-12-17T20:04:49.736Z,32.65
2022-12-17T20:07:18.602Z,41.95
2022-12-17T20:09:46.898Z,31.13
2022-12-17T20:12:15.439Z,38.35
2022-12-17T20:14:43.796Z,18.52
2022-12-17T20:17:12.521Z,16.73
2022-12-17T20:19:40.976Z,11.15
2022-12-17T20:22:10.800Z,11.45
2022-12-17T20:24:39.911Z,9.70
2022-12-17T20:27:08.486Z,18.77
2022-12-17T20:29:37.088Z,10.30
2022-12-17T20:32:05.696Z,19.27
2022-12-17T20:34:36.391Z,19.50
2022-12-17T20:37:04.340Z,15.80
2022-12-17T20:39:32.648Z,13.23
2022-12-17T20:42:00.672Z,12.65
2022-12-17T20:44:29.093Z,9.32
2022-12-17T20:47:00.499Z,9.95
2022-12-17T20:49:28.556Z,12.38
2022-12-17T20:51:59.630Z,10.85
2022-12-17T20:54:27.843Z,12.85
2022-12-17T20:56:57.682Z,15.50
2022-12-17T20:59:25.811Z,47.97
2022-12-17T21:01:56.355Z,28.52
2022-12-17T21:04:25.148Z,27.50
2022-12-17T21:06:54.022Z,32.47
2022-12-17T21:09:25.760Z,26.15
2022-12-17T21:11:54.142Z,14.93
2022-12-17T21:14:22.043Z,14.23
2022-12-17T21:16:50.301Z,14.32
2022-12-17T21:19:20.270Z,14.75
2022-12-17T21:21:48.771Z,12.63
2022-12-17T21:24:16.688Z,10.68
2022-12-17T21:26:47.213Z,12.73
2022-12-17T21:29:16.445Z,14.82
2022-12-17T21:31:47.591Z,11.45
2022-12-17T21:34:34.991Z,13.73
2022-12-17T21:45:40.894Z,13.48
2022-12-17T21:50:54.291Z,17.67
2022-12-17T21:53:23.784Z,11.30
2022-12-17T21:55:54.958Z,17.70
2022-12-17T21:58:24.014Z,12.13
2022-12-17T22:00:54.792Z,16.60
2022-12-17T22:03:22.986Z,15.15
2022-12-17T22:05:51.202Z,9.40
2022-12-17T22:08:19.572Z,9.18
2022-12-17T22:10:51.660Z,10.60
2022-12-17T22:13:38.536Z,13.57
2022-12-17T22:16:07.710Z,8.40
2022-12-17T22:18:35.932Z,9.52
2022-12-17T22:21:04.760Z,9.10
2022-12-17T22:23:33.211Z,6.47
2022-12-17T22:28:29.366Z,8.55
2022-12-17T22:31:16.004Z,10.45
2022-12-17T22:34:30.853Z,9.57
2022-12-17T22:38:53.437Z,9.30
2022-12-17T22:43:45.209Z,6.82
2022-12-17T22:44:49.499Z,9.15
2022-12-17T22:45:22.782Z,7.82
2022-12-17T22:47:51.566Z,7.38
2022-12-17T22:50:25.970Z,6.95
2022-12-17T22:52:56.721Z,8.35
2022-12-17T22:55:25.216Z,10.60
2022-12-17T22:57:55.148Z,9.20
2022-12-17T23:00:27.168Z,7.18
2022-12-17T23:02:56.264Z,9.70
2022-12-17T23:05:25.595Z,12.02
2022-12-17T23:07:53.845Z,15.48
2022-12-17T23:10:22.952Z,19.17
2022-12-17T23:12:51.431Z,9.02
2022-12-17T23:15:26.439Z,16.20
2022-12-17T23:17:56.684Z,10.05
2022-12-17T23:20:26.316Z,9.98
2022-12-17T23:22:54.547Z,5.18
2022-12-17T23:25:23.386Z,8.98
2022-12-17T23:30:20.134Z,7.47
2022-12-17T23:32:49.149Z,6.25
2022-12-17T23:35:17.564Z,9.00
2022-12-17T23:37:45.561Z,7.32
2022-12-17T23:40:13.849Z,5.88
2022-12-17T23:42:41.920Z,6.55
2022-12-17T23:45:11.788Z,6.53
2022-12-17T23:47:41.563Z,5.90
2022-12-17T23:50:11.311Z,5.85
2022-12-17T23:52:39.639Z,4.93
2022-12-17T23:55:08.196Z,6.78
2022-12-17T23:57:36.279Z,6.60
